createdAt,value
2023-02-06T00:00:52.025Z,9.10
2023-02-06T00:02:54.225Z,9.30
2023-02-06T00:04:56.348Z,8.20
2023-02-06T00:06:58.570Z,7.87
2023-02-06T00:09:04.380Z,9.30
2023-02-06T00:11:08.513Z,8.48
2023-02-06T00:13:10.743Z,8.20
2023-02-06T00:15:13.319Z,8.35
2023-02-06T00:17:15.497Z,8.15
2023-02-06T00:19:17.628Z,9.43
2023-02-06T00:21:22.025Z,7.20
2023-02-06T00:23:24.251Z,7.35
2023-02-06T00:25:26.468Z,7.83
2023-02-06T00:27:28.748Z,8.55
2023-02-06T00:29:30.974Z,7.68
2023-02-06T00:31:33.926Z,9.73
2023-02-06T00:33:36.828Z,8.50
2023-02-06T00:35:39.138Z,9.13
2023-02-06T00:37:42.036Z,9.00
2023-02-06T00:39:44.258Z,7.40
2023-02-06T00:41:46.444Z,9.13
2023-02-06T00:43:48.673Z,7.53
2023-02-06T00:45:55.528Z,8.60
2023-02-06T00:47:57.652Z,8.63
2023-02-06T00:49:59.847Z,8.40
2023-02-06T00:52:02.253Z,8.27
2023-02-06T00:54:04.699Z,8.60
2023-02-06T00:56:07.119Z,9.55
2023-02-06T00:58:09.294Z,8.37
2023-02-06T01:00:12.052Z,8.53
2023-02-06T01:02:14.270Z,9.18
2023-02-06T01:04:16.535Z,8.57
2023-02-06T01:06:19.131Z,8.00
2023-02-06T01:08:21.302Z,8.47
2023-02-06T01:10:23.730Z,8.13
2023-02-06T01:12:25.924Z,9.10
2023-02-06T01:14:28.121Z,9.02
2023-02-06T01:16:30.341Z,8.70
2023-02-06T01:18:32.540Z,8.25
2023-02-06T01:20:35.007Z,8.40
2023-02-06T01:22:40.259Z,8.07
2023-02-06T01:24:42.453Z,8.43
2023-02-06T01:26:46.001Z,9.07
2023-02-06T01:28:48.844Z,9.00
2023-02-06T01:30:51.387Z,9.27
2023-02-06T01:32:53.622Z,8.95
2023-02-06T01:34:55.787Z,8.55
2023-02-06T01:36:57.965Z,8.90
2023-02-06T01:39:00.068Z,8.00
2023-02-06T01:41:03.852Z,9.50
2023-02-06T01:43:14.329Z,8.55
2023-02-06T01:45:46.408Z,8.48
2023-02-06T01:47:52.867Z,8.10
2023-02-06T01:49:55.395Z,8.13
2023-02-06T01:52:05.293Z,8.10
2023-02-06T01:54:08.094Z,8.32
2023-02-06T01:56:10.687Z,9.10
2023-02-06T01:58:18.779Z,7.93
2023-02-06T02:00:21.305Z,9.20
2023-02-06T02:02:25.959Z,8.93
2023-02-06T02:04:29.157Z,7.70
2023-02-06T02:06:31.606Z,8.20
2023-02-06T02:08:42.095Z,9.07
2023-02-06T02:10:44.464Z,8.30
2023-02-06T02:12:46.775Z,8.40
2023-02-06T02:14:50.564Z,7.88
2023-02-06T02:17:02.479Z,6.38
2023-02-06T02:19:23.308Z,7.75
2023-02-06T02:22:02.884Z,8.10
2023-02-06T02:24:35.694Z,8.00
2023-02-06T02:27:00.946Z,7.57
2023-02-06T02:29:28.685Z,7.40
2023-02-06T02:31:38.881Z,7.37
2023-02-06T02:34:00.940Z,8.37
2023-02-06T02:36:05.753Z,8.60
2023-02-06T02:38:13.260Z,7.30
2023-02-06T02:40:19.378Z,7.63
2023-02-06T02:42:36.708Z,8.10
2023-02-06T02:44:50.292Z,8.07
2023-02-06T02:46:54.256Z,10.15
2023-02-06T02:49:02.044Z,8.70
2023-02-06T02:51:05.763Z,9.00
2023-02-06T02:53:08.504Z,9.55
2023-02-06T02:55:22.745Z,8.93
2023-02-06T02:57:30.783Z,8.63
2023-02-06T02:59:36.997Z,9.60
2023-02-06T03:01:44.999Z,9.33
2023-02-06T03:03:48.969Z,8.70
2023-02-06T03:06:22.407Z,9.77
2023-02-06T03:08:39.012Z,9.15
2023-02-06T03:10:53.048Z,8.32
2023-02-06T03:13:42.672Z,7.90
2023-02-06T03:15:50.530Z,7.87
2023-02-06T03:18:04.610Z,7.57
2023-02-06T03:20:09.449Z,8.40
2023-02-06T03:22:12.751Z,7.20
2023-02-06T03:24:20.981Z,7.30
2023-02-06T03:26:26.686Z,9.70
2023-02-06T03:28:33.456Z,6.83
2023-02-06T03:30:35.992Z,7.50
2023-02-06T03:32:42.841Z,7.60
2023-02-06T03:34:53.615Z,8.70
2023-02-06T03:36:55.884Z,8.17
2023-02-06T03:38:58.081Z,8.70
2023-02-06T03:41:00.671Z,8.65
2023-02-06T03:43:03.883Z,7.17
2023-02-06T03:45:40.209Z,8.63
2023-02-06T03:47:44.267Z,7.83
2023-02-06T03:49:47.695Z,8.25
2023-02-06T03:51:57.226Z,8.20
2023-02-06T03:54:01.415Z,9.07
2023-02-06T03:56:11.364Z,7.00
2023-02-06T03:58:14.799Z,7.77
2023-02-06T04:00:17.098Z,7.37
2023-02-06T04:02:20.551Z,7.70
2023-02-06T04:04:29.105Z,8.23
2023-02-06T04:06:31.420Z,7.37
2023-02-06T04:08:33.612Z,7.63
2023-02-06T04:10:35.772Z,8.30
2023-02-06T04:12:38.209Z,7.53
2023-02-06T04:14:40.372Z,7.63
2023-02-06T04:16:42.546Z,8.00
2023-02-06T04:18:45.839Z,6.73
2023-02-06T04:20:47.953Z,7.03
2023-02-06T04:22:50.389Z,7.27
2023-02-06T04:24:52.571Z,8.13
2023-02-06T04:26:54.871Z,8.10
2023-02-06T04:28:57.043Z,7.33
2023-02-06T04:30:59.874Z,7.53
2023-02-06T04:33:02.218Z,7.80
2023-02-06T04:35:04.752Z,7.83
2023-02-06T04:37:07.299Z,9.93
2023-02-06T04:39:09.821Z,7.70
2023-02-06T04:41:12.105Z,8.27
2023-02-06T04:43:14.187Z,7.83
2023-02-06T04:45:16.518Z,7.70
2023-02-06T04:47:18.690Z,7.67
2023-02-06T04:49:20.990Z,7.60
2023-02-06T04:51:23.168Z,7.67
2023-02-06T04:53:25.320Z,8.47
2023-02-06T04:55:29.963Z,8.77
2023-02-06T04:57:32.139Z,8.83
2023-02-06T04:59:34.535Z,8.43
2023-02-06T05:01:36.759Z,8.00
2023-02-06T05:03:38.926Z,8.20
2023-02-06T05:05:41.063Z,7.83
2023-02-06T05:07:43.189Z,8.20
2023-02-06T05:09:46.160Z,8.60
2023-02-06T05:11:48.407Z,8.20
2023-02-06T05:13:50.688Z,8.90
2023-02-06T05:15:52.940Z,8.87
2023-02-06T05:17:55.105Z,8.27
2023-02-06T05:19:58.416Z,8.40
2023-02-06T05:22:00.826Z,8.13
2023-02-06T05:24:03.373Z,8.07
2023-02-06T05:26:06.317Z,8.40
2023-02-06T05:28:08.827Z,8.60
2023-02-06T05:30:12.104Z,7.77
2023-02-06T05:32:15.245Z,8.00
2023-02-06T05:34:17.432Z,7.40
2023-02-06T05:36:20.534Z,8.47
2023-02-06T05:38:22.772Z,7.80
2023-02-06T05:40:24.956Z,8.63
2023-02-06T05:42:27.195Z,7.70
2023-02-06T05:44:29.418Z,8.40
2023-02-06T05:46:31.609Z,8.53
2023-02-06T05:48:34.952Z,9.13
2023-02-06T05:50:37.196Z,9.80
2023-02-06T05:52:49.797Z,8.00
2023-02-06T05:54:52.090Z,8.53
2023-02-06T05:56:54.301Z,9.60
2023-02-06T05:58:56.422Z,8.93
2023-02-06T06:00:58.575Z,9.50
2023-02-06T06:03:00.720Z,8.17
2023-02-06T06:05:02.999Z,9.60
2023-02-06T06:07:05.229Z,8.70
2023-02-06T06:09:07.388Z,9.20
2023-02-06T06:11:09.577Z,9.77
2023-02-06T06:13:11.972Z,8.87
2023-02-06T06:15:14.199Z,9.70
2023-02-06T06:17:16.318Z,9.80
2023-02-06T06:19:18.752Z,10.10
2023-02-06T06:21:20.936Z,9.17
2023-02-06T06:23:23.106Z,10.13
2023-02-06T06:25:25.288Z,10.30
2023-02-06T06:27:27.446Z,10.53
2023-02-06T06:29:29.909Z,10.67
2023-02-06T06:31:32.064Z,10.53
2023-02-06T06:33:34.404Z,12.90
2023-02-06T06:35:37.300Z,12.50
2023-02-06T06:37:39.810Z,13.37
2023-02-06T06:39:42.153Z,13.63
2023-02-06T06:41:44.312Z,13.63
2023-02-06T06:43:46.446Z,14.30
2023-02-06T06:45:48.656Z,15.10
2023-02-06T06:47:50.853Z,14.37
2023-02-06T06:49:53.055Z,16.17
2023-02-06T06:51:55.215Z,17.60
2023-02-06T06:53:57.526Z,16.60
2023-02-06T06:56:03.988Z,16.03
2023-02-06T06:58:06.182Z,16.80
2023-02-06T07:00:09.352Z,16.30
2023-02-06T07:02:11.612Z,15.80
2023-02-06T07:04:13.882Z,15.47
2023-02-06T07:06:16.411Z,16.30
2023-02-06T07:08:18.575Z,16.00
2023-02-06T07:10:20.983Z,15.53
2023-02-06T07:12:23.251Z,16.60
2023-02-06T07:14:25.477Z,17.00
2023-02-06T07:16:27.887Z,18.73
2023-02-06T07:18:30.112Z,17.57
2023-02-06T07:20:33.551Z,16.63
2023-02-06T07:22:35.660Z,19.37
2023-02-06T07:24:37.771Z,17.70
2023-02-06T07:26:41.578Z,17.67
2023-02-06T07:28:43.615Z,18.30
2023-02-06T07:30:45.613Z,19.73
2023-02-06T07:32:47.677Z,18.10
2023-02-06T07:34:49.701Z,19.80
2023-02-06T07:36:51.798Z,19.27
2023-02-06T07:38:54.280Z,20.50
2023-02-06T07:41:01.478Z,20.43
2023-02-06T07:43:06.950Z,21.17
2023-02-06T07:45:10.469Z,21.73
2023-02-06T07:47:12.749Z,20.37
2023-02-06T07:49:15.939Z,19.97
2023-02-06T07:51:18.156Z,19.60
2023-02-06T07:53:20.576Z,22.43
2023-02-06T07:55:23.725Z,20.40
2023-02-06T07:57:25.860Z,20.63
2023-02-06T07:59:28.044Z,24.13
2023-02-06T08:01:30.279Z,21.67
2023-02-06T08:03:32.823Z,24.23
2023-02-06T08:05:38.518Z,24.03
2023-02-06T08:07:40.645Z,21.83
2023-02-06T08:09:42.926Z,23.20
2023-02-06T08:11:44.954Z,25.40
2023-02-06T08:13:48.014Z,23.90
2023-02-06T08:15:51.192Z,23.70
2023-02-06T08:17:53.264Z,26.00
2023-02-06T08:19:55.260Z,22.90
2023-02-06T08:21:57.294Z,22.67
2023-02-06T08:24:00.565Z,24.57
2023-02-06T08:26:03.973Z,23.10
2023-02-06T08:28:06.112Z,22.57
2023-02-06T08:30:08.865Z,22.93
2023-02-06T08:32:11.612Z,23.90
2023-02-06T08:34:15.081Z,23.50
2023-02-06T08:36:18.883Z,24.20
2023-02-06T08:38:20.899Z,22.53
2023-02-06T08:40:22.930Z,24.27
2023-02-06T08:42:25.111Z,24.13
2023-02-06T08:44:27.581Z,22.47
2023-02-06T08:46:32.171Z,22.17
2023-02-06T08:48:34.256Z,23.30
2023-02-06T08:50:36.545Z,21.27
2023-02-06T08:52:40.315Z,22.50
2023-02-06T08:54:42.330Z,22.17
2023-02-06T08:56:44.482Z,23.17
2023-02-06T08:58:46.534Z,22.70
2023-02-06T09:00:48.680Z,22.60
2023-02-06T09:02:52.901Z,23.70
2023-02-06T09:04:54.974Z,24.40
2023-02-06T09:06:59.485Z,22.73
2023-02-06T09:09:01.884Z,24.00
2023-02-06T09:11:11.022Z,24.83
2023-02-06T09:13:13.104Z,25.37
2023-02-06T09:15:15.248Z,24.30
2023-02-06T09:17:17.485Z,23.03
2023-02-06T09:19:19.540Z,22.60
2023-02-06T09:21:25.213Z,22.00
2023-02-06T09:23:27.293Z,23.33
2023-02-06T09:25:29.486Z,21.97
2023-02-06T09:27:31.467Z,21.30
2023-02-06T09:29:33.609Z,20.97
2023-02-06T09:31:37.959Z,20.30
2023-02-06T09:33:40.452Z,22.17
2023-02-06T09:35:42.493Z,19.73
2023-02-06T09:37:45.012Z,21.43
2023-02-06T09:39:47.393Z,24.23
2023-02-06T09:41:52.667Z,23.70
2023-02-06T09:43:58.736Z,21.20
2023-02-06T09:46:03.811Z,23.57
2023-02-06T09:48:22.872Z,21.47
2023-02-06T09:50:28.396Z,19.57
2023-02-06T09:52:30.429Z,21.20
2023-02-06T09:54:53.310Z,21.00
2023-02-06T09:57:02.686Z,19.93
2023-02-06T09:59:21.028Z,20.43
2023-02-06T10:01:38.168Z,18.90
2023-02-06T10:03:50.103Z,18.40
2023-02-06T10:06:13.654Z,18.83
2023-02-06T10:08:40.760Z,16.20
2023-02-06T10:10:48.451Z,19.50
2023-02-06T10:13:05.568Z,17.17
2023-02-06T10:15:10.794Z,16.97
2023-02-06T10:17:19.724Z,15.87
2023-02-06T10:19:33.651Z,15.63
2023-02-06T10:21:41.463Z,16.17
2023-02-06T10:23:50.855Z,15.43
2023-02-06T10:26:12.459Z,16.40
2023-02-06T10:28:24.322Z,16.83
2023-02-06T10:30:44.538Z,15.93
2023-02-06T10:32:54.592Z,16.03
2023-02-06T10:35:10.236Z,14.57
2023-02-06T10:37:47.787Z,14.83
2023-02-06T10:40:17.836Z,15.10
2023-02-06T10:43:08.053Z,13.30
2023-02-06T10:45:31.935Z,14.73
2023-02-06T10:47:45.766Z,12.70
2023-02-06T10:49:52.611Z,14.63
2023-02-06T10:51:58.429Z,16.93
2023-02-06T10:54:03.626Z,15.57
2023-02-06T10:56:12.937Z,14.33
2023-02-06T10:58:36.247Z,16.03
2023-02-06T11:00:39.523Z,15.47
2023-02-06T11:03:01.335Z,14.20
2023-02-06T11:05:13.110Z,16.10
2023-02-06T11:07:25.216Z,20.70
2023-02-06T11:09:27.302Z,16.37
2023-02-06T11:11:31.655Z,15.77
2023-02-06T11:13:35.518Z,13.70
2023-02-06T11:15:43.418Z,13.80
2023-02-06T11:17:45.975Z,15.50
2023-02-06T11:19:50.122Z,16.00
2023-02-06T11:22:07.368Z,16.07
2023-02-06T11:24:11.570Z,12.97
2023-02-06T11:26:19.307Z,15.47
2023-02-06T11:28:23.344Z,13.10
2023-02-06T11:30:38.340Z,17.13
2023-02-06T11:32:52.691Z,13.43
2023-02-06T11:35:05.107Z,14.00
2023-02-06T11:37:32.130Z,13.23
2023-02-06T11:39:36.747Z,12.10
2023-02-06T11:41:38.917Z,12.53
2023-02-06T11:43:40.889Z,13.60
2023-02-06T11:45:43.041Z,11.20
2023-02-06T11:47:45.184Z,12.10
2023-02-06T11:49:47.486Z,13.40
2023-02-06T11:51:52.725Z,13.30
2023-02-06T11:54:02.633Z,12.10
2023-02-06T11:56:20.752Z,13.63
2023-02-06T11:58:26.506Z,12.40
2023-02-06T12:00:28.815Z,13.27
2023-02-06T12:02:36.667Z,13.33
2023-02-06T12:04:40.723Z,15.90
2023-02-06T12:06:43.412Z,15.67
2023-02-06T12:08:53.842Z,13.37
2023-02-06T12:11:02.066Z,16.80
2023-02-06T12:13:12.862Z,14.17
2023-02-06T12:15:43.654Z,16.60
2023-02-06T12:17:43.822Z,14.40
2023-02-06T12:19:50.238Z,12.30
2023-02-06T12:21:55.605Z,14.07
2023-02-06T12:24:02.925Z,14.87
2023-02-06T12:26:13.856Z,13.27
2023-02-06T12:28:24.758Z,13.30
2023-02-06T12:30:48.021Z,13.00
2023-02-06T12:32:55.876Z,11.70
2023-02-06T12:35:02.360Z,11.90
2023-02-06T12:37:14.431Z,10.67
2023-02-06T12:39:22.924Z,11.17
2023-02-06T12:41:47.096Z,12.27
2023-02-06T12:43:56.379Z,10.77
2023-02-06T12:46:06.175Z,11.27
2023-02-06T12:48:18.503Z,10.97
2023-02-06T12:50:26.908Z,11.00
2023-02-06T12:52:39.561Z,11.10
2023-02-06T12:54:47.288Z,11.37
2023-02-06T12:57:06.022Z,11.73
2023-02-06T12:59:10.891Z,10.77
2023-02-06T13:01:45.596Z,11.87
2023-02-06T13:03:59.331Z,10.03
2023-02-06T13:06:13.791Z,11.13
2023-02-06T13:08:20.306Z,12.10
2023-02-06T13:10:25.880Z,10.63
2023-02-06T13:12:31.660Z,11.90
2023-02-06T13:14:34.245Z,11.63
2023-02-06T13:16:45.513Z,10.00
2023-02-06T13:18:52.789Z,11.57
2023-02-06T13:21:13.686Z,10.80
2023-02-06T13:23:16.560Z,38.10
2023-02-06T13:25:24.960Z,20.80
2023-02-06T13:27:39.668Z,13.07
2023-02-06T13:29:45.822Z,12.60
2023-02-06T13:31:48.483Z,11.10
2023-02-06T13:33:54.109Z,10.60
2023-02-06T13:36:09.879Z,13.53
2023-02-06T13:38:35.022Z,10.90
2023-02-06T13:40:37.285Z,11.90
2023-02-06T13:42:54.661Z,11.93
2023-02-06T13:44:58.289Z,11.80
2023-02-06T13:47:15.795Z,14.13
2023-02-06T13:49:59.390Z,16.03
2023-02-06T13:52:24.119Z,14.20
2023-02-06T13:55:23.690Z,11.33
2023-02-06T13:57:41.775Z,12.17
2023-02-06T13:59:50.556Z,14.07
2023-02-06T14:01:53.426Z,11.97
2023-02-06T14:03:56.713Z,12.10
2023-02-06T14:06:00.613Z,13.70
2023-02-06T14:08:36.369Z,11.67
2023-02-06T14:11:03.957Z,10.70
2023-02-06T14:13:21.950Z,10.10
2023-02-06T14:15:42.653Z,10.80
2023-02-06T14:18:18.624Z,9.60
2023-02-06T14:20:31.933Z,11.93
2023-02-06T14:22:59.317Z,9.27
2023-02-06T14:25:20.270Z,11.43
2023-02-06T14:27:37.335Z,11.00
2023-02-06T14:30:01.570Z,10.57
2023-02-06T14:32:27.782Z,10.97
2023-02-06T14:34:35.711Z,9.50
2023-02-06T14:36:56.191Z,9.20
2023-02-06T14:39:16.731Z,8.27
2023-02-06T14:41:19.275Z,8.83
2023-02-06T14:43:24.331Z,9.10
2023-02-06T14:45:38.473Z,8.70
2023-02-06T14:47:44.292Z,10.20
2023-02-06T14:49:46.932Z,9.60
2023-02-06T14:51:51.263Z,7.97
2023-02-06T14:54:01.710Z,9.77
2023-02-06T14:56:13.559Z,10.00
2023-02-06T14:58:20.059Z,9.10
2023-02-06T15:00:22.373Z,8.80
2023-02-06T15:02:31.422Z,9.10
2023-02-06T15:04:33.554Z,9.03
2023-02-06T15:06:38.695Z,8.10
2023-02-06T15:08:50.571Z,8.77
2023-02-06T15:11:01.226Z,10.17
2023-02-06T15:13:04.487Z,9.63
2023-02-06T15:15:18.292Z,10.10
2023-02-06T15:17:21.880Z,12.00
2023-02-06T15:19:29.403Z,11.40
2023-02-06T15:21:31.477Z,13.37
2023-02-06T15:24:07.398Z,13.97
2023-02-06T15:26:29.087Z,12.43
2023-02-06T15:28:32.749Z,12.60
2023-02-06T15:30:35.801Z,13.10
2023-02-06T15:32:40.158Z,15.07
2023-02-06T15:34:44.285Z,13.13
2023-02-06T15:36:46.523Z,14.70
2023-02-06T15:38:48.979Z,15.70
2023-02-06T15:40:55.634Z,15.03
2023-02-06T15:42:58.644Z,16.03
2023-02-06T15:45:00.861Z,17.30
2023-02-06T15:47:04.964Z,16.10
2023-02-06T15:49:17.464Z,16.63
2023-02-06T15:51:28.693Z,15.20
2023-02-06T15:53:35.517Z,16.90
2023-02-06T15:55:38.910Z,17.07
2023-02-06T15:57:42.015Z,15.97
2023-02-06T15:59:44.330Z,15.70
2023-02-06T16:01:46.717Z,13.60
2023-02-06T16:03:51.325Z,15.50
2023-02-06T16:05:54.060Z,15.77
2023-02-06T16:07:56.606Z,16.87
2023-02-06T16:10:04.190Z,17.90
2023-02-06T16:12:06.487Z,16.67
2023-02-06T16:14:19.787Z,15.97
2023-02-06T16:16:24.742Z,16.07
2023-02-06T16:18:31.324Z,19.07
2023-02-06T16:20:42.237Z,18.60
2023-02-06T16:22:44.269Z,18.07
2023-02-06T16:24:47.190Z,19.43
2023-02-06T16:26:52.313Z,20.20
2023-02-06T16:28:59.532Z,18.20
2023-02-06T16:31:04.587Z,20.50
2023-02-06T16:33:25.796Z,20.37
2023-02-06T16:35:28.020Z,17.70
2023-02-06T16:37:30.785Z,20.17
2023-02-06T16:39:32.954Z,20.97
2023-02-06T16:41:38.228Z,20.73
2023-02-06T16:43:41.583Z,19.60
2023-02-06T16:45:43.784Z,19.57
2023-02-06T16:47:46.127Z,21.30
2023-02-06T16:49:48.431Z,20.10
2023-02-06T16:51:53.021Z,20.00
2023-02-06T16:53:55.424Z,17.40
2023-02-06T16:55:58.087Z,21.10
2023-02-06T16:58:01.574Z,18.80
2023-02-06T17:00:12.598Z,18.60
2023-02-06T17:02:15.048Z,20.40
2023-02-06T17:04:17.241Z,20.57
2023-02-06T17:06:25.350Z,19.13
2023-02-06T17:08:28.104Z,17.53
2023-02-06T17:10:30.416Z,19.10
2023-02-06T17:12:32.801Z,19.27
2023-02-06T17:14:35.014Z,20.97
2023-02-06T17:16:37.400Z,21.63
2023-02-06T17:18:39.706Z,20.97
2023-02-06T17:20:44.280Z,22.20
2023-02-06T17:22:46.478Z,23.07
2023-02-06T17:24:49.137Z,21.70
2023-02-06T17:26:51.387Z,22.10
2023-02-06T17:28:53.629Z,24.17
2023-02-06T17:30:55.949Z,23.70
2023-02-06T17:32:58.173Z,20.53
2023-02-06T17:35:02.498Z,24.70
2023-02-06T17:37:05.122Z,23.07
2023-02-06T17:39:07.573Z,23.47
2023-02-06T17:41:09.863Z,21.63
2023-02-06T17:43:12.181Z,20.30
2023-02-06T17:45:14.884Z,25.07
2023-02-06T17:47:17.757Z,23.23
2023-02-06T17:49:20.296Z,21.80
2023-02-06T17:51:22.527Z,19.73
2023-02-06T17:53:24.721Z,21.47
2023-02-06T17:55:28.148Z,19.33
2023-02-06T17:57:30.868Z,19.47
2023-02-06T17:59:33.145Z,20.53
2023-02-06T18:01:35.400Z,20.47
2023-02-06T18:03:37.885Z,20.90
2023-02-06T18:05:40.136Z,18.77
2023-02-06T18:07:42.355Z,22.80
2023-02-06T18:09:44.728Z,20.83
2023-02-06T18:11:47.604Z,21.77
2023-02-06T18:13:50.079Z,20.20
2023-02-06T18:15:53.852Z,21.00
2023-02-06T18:17:56.349Z,19.23
2023-02-06T18:19:58.592Z,20.80
2023-02-06T18:22:00.773Z,19.40
2023-02-06T18:24:03.151Z,19.93
2023-02-06T18:26:07.734Z,20.07
2023-02-06T18:28:13.868Z,20.23
2023-02-06T18:30:17.307Z,19.07
2023-02-06T18:32:19.673Z,21.27
2023-02-06T18:34:21.941Z,20.83
2023-02-06T18:36:24.395Z,18.63
2023-02-06T18:38:26.711Z,24.40
2023-02-06T18:40:29.098Z,25.20
2023-02-06T18:42:50.185Z,20.80
2023-02-06T18:44:52.460Z,19.67
2023-02-06T18:46:54.726Z,19.17
2023-02-06T18:48:57.253Z,20.57
2023-02-06T18:51:00.935Z,20.83
2023-02-06T18:53:03.681Z,17.60
2023-02-06T18:55:08.253Z,19.50
2023-02-06T18:57:10.506Z,20.40
2023-02-06T18:59:12.917Z,18.80
2023-02-06T19:01:18.166Z,18.83
2023-02-06T19:03:20.742Z,19.23
2023-02-06T19:05:22.936Z,19.47
2023-02-06T19:07:25.412Z,18.37
2023-02-06T19:09:27.572Z,18.93
2023-02-06T19:11:29.740Z,19.67
2023-02-06T19:13:34.260Z,19.67
2023-02-06T19:15:38.318Z,18.03
2023-02-06T19:17:41.018Z,20.17
2023-02-06T19:19:43.181Z,16.87
2023-02-06T19:21:45.479Z,18.60
2023-02-06T19:23:54.307Z,18.70
2023-02-06T19:25:56.659Z,22.80
2023-02-06T19:27:58.889Z,27.60
2023-02-06T19:30:01.156Z,24.60
2023-02-06T19:32:07.763Z,21.70
2023-02-06T19:34:10.167Z,21.20
2023-02-06T19:36:14.469Z,24.43
2023-02-06T19:38:16.632Z,21.80
2023-02-06T19:40:18.988Z,20.60
2023-02-06T19:42:21.209Z,20.77
2023-02-06T19:44:23.372Z,19.63
2023-02-06T19:46:26.806Z,20.37
2023-02-06T19:48:29.039Z,19.67
2023-02-06T19:50:31.298Z,18.20
2023-02-06T19:52:35.269Z,19.47
2023-02-06T19:54:37.886Z,17.57
2023-02-06T19:56:42.709Z,27.10
2023-02-06T19:58:45.101Z,24.20
2023-02-06T20:00:47.486Z,24.93
2023-02-06T20:02:50.135Z,26.20
2023-02-06T20:04:52.289Z,24.10
2023-02-06T20:06:56.030Z,26.50
2023-02-06T20:08:58.238Z,28.93
2023-02-06T20:11:07.501Z,25.93
2023-02-06T20:13:09.914Z,23.40
2023-02-06T20:15:12.497Z,22.43
2023-02-06T20:17:14.739Z,21.00
2023-02-06T20:19:19.586Z,20.20
2023-02-06T20:21:27.935Z,21.07
2023-02-06T20:23:30.242Z,20.70
2023-02-06T20:25:37.003Z,23.23
2023-02-06T20:27:39.257Z,21.80
2023-02-06T20:29:43.075Z,22.43
2023-02-06T20:31:45.559Z,22.53
2023-02-06T20:33:48.372Z,24.20
2023-02-06T20:35:50.524Z,25.87
2023-02-06T20:37:52.709Z,22.10
2023-02-06T20:39:54.970Z,22.10
2023-02-06T20:41:57.354Z,21.77
2023-02-06T20:44:00.798Z,19.33
2023-02-06T20:46:08.053Z,21.70
2023-02-06T20:48:10.208Z,20.10
2023-02-06T20:50:13.797Z,19.70
2023-02-06T20:52:16.107Z,22.37
2023-02-06T20:54:19.719Z,19.50
2023-02-06T20:56:22.425Z,19.57
2023-02-06T20:58:25.854Z,21.80
2023-02-06T21:00:28.249Z,20.30
2023-02-06T21:02:30.587Z,21.40
2023-02-06T21:04:33.890Z,18.03
2023-02-06T21:06:37.635Z,19.77
2023-02-06T21:08:40.231Z,19.10
2023-02-06T21:10:42.428Z,20.17
2023-02-06T21:12:44.669Z,20.10
2023-02-06T21:14:47.144Z,20.27
2023-02-06T21:16:49.983Z,20.57
2023-02-06T21:18:52.245Z,19.73
2023-02-06T21:20:55.926Z,19.10
2023-02-06T21:22:58.490Z,19.60
2023-02-06T21:25:01.225Z,20.77
2023-02-06T21:27:03.722Z,16.60
2023-02-06T21:29:07.784Z,21.07
2023-02-06T21:31:14.970Z,20.27
2023-02-06T21:33:17.441Z,18.70
2023-02-06T21:35:19.657Z,19.17
2023-02-06T21:37:22.666Z,20.57
2023-02-06T21:39:27.311Z,20.17
2023-02-06T21:41:29.783Z,20.37
2023-02-06T21:43:32.819Z,20.03
2023-02-06T21:45:35.259Z,20.88
2023-02-06T21:47:37.633Z,19.13
2023-02-06T21:49:39.743Z,19.43
2023-02-06T21:51:41.973Z,20.60
2023-02-06T21:53:45.148Z,19.70
2023-02-06T21:55:47.412Z,20.00
2023-02-06T21:57:49.638Z,18.33
2023-02-06T21:59:51.897Z,18.97
2023-02-06T22:01:54.129Z,19.27
2023-02-06T22:03:57.150Z,18.07
2023-02-06T22:06:11.846Z,17.80
2023-02-06T22:08:14.858Z,18.73
2023-02-06T22:10:17.158Z,18.40
2023-02-06T22:12:19.371Z,19.67
2023-02-06T22:14:21.661Z,18.07
2023-02-06T22:16:24.791Z,18.38
2023-02-06T22:18:27.074Z,17.60
2023-02-06T22:20:29.318Z,18.90
2023-02-06T22:22:31.524Z,17.85
2023-02-06T22:24:33.685Z,18.20
2023-02-06T22:26:38.955Z,18.30
2023-02-06T22:28:41.734Z,17.53
2023-02-06T22:30:44.001Z,19.02
2023-02-06T22:32:46.198Z,17.93
2023-02-06T22:34:50.881Z,19.03
2023-02-06T22:36:53.510Z,18.47
2023-02-06T22:38:59.498Z,16.93
2023-02-06T22:41:04.082Z,19.13
2023-02-06T22:43:06.468Z,17.50
2023-02-06T22:45:09.105Z,18.20
2023-02-06T22:47:11.268Z,17.17
2023-02-06T22:49:14.059Z,17.70
2023-02-06T22:51:16.440Z,17.77
2023-02-06T22:53:31.273Z,18.27
2023-02-06T22:55:57.221Z,16.67
2023-02-06T22:57:59.370Z,17.53
2023-02-06T23:00:01.661Z,17.27
2023-02-06T23:02:04.257Z,17.23
2023-02-06T23:04:08.669Z,20.00
2023-02-06T23:06:12.640Z,17.40
2023-02-06T23:08:15.918Z,18.00
2023-02-06T23:10:18.219Z,19.03
2023-02-06T23:12:20.475Z,19.70
2023-02-06T23:14:22.689Z,17.47
2023-02-06T23:16:25.528Z,19.23
2023-02-06T23:18:28.417Z,16.93
2023-02-06T23:20:30.707Z,20.73
2023-02-06T23:22:32.872Z,19.50
2023-02-06T23:24:35.074Z,19.60
2023-02-06T23:26:37.642Z,18.27
2023-02-06T23:28:40.687Z,18.77
2023-02-06T23:30:42.996Z,18.07
2023-02-06T23:32:45.213Z,18.63
2023-02-06T23:34:47.616Z,17.57
2023-02-06T23:36:50.678Z,16.30
2023-02-06T23:38:52.929Z,18.73
2023-02-06T23:40:55.061Z,19.95
2023-02-06T23:42:57.852Z,17.80
2023-02-06T23:45:00.409Z,18.70
2023-02-06T23:47:02.707Z,18.75
2023-02-06T23:49:06.413Z,19.27
2023-02-06T23:51:08.675Z,19.10
2023-02-06T23:53:10.818Z,18.43
2023-02-06T23:55:12.973Z,20.73
2023-02-06T23:57:15.450Z,18.90
2023-02-06T23:59:17.739Z,18.43
